createdAt,value
2018-07-02T00:01:03.552Z,15.88
2018-07-02T00:02:14.130Z,15.88
2018-07-02T00:03:24.624Z,15.83
2018-07-02T00:04:34.832Z,15.88
2018-07-02T00:05:45.037Z,15.75
2018-07-02T00:06:55.271Z,15.8
2018-07-02T00:08:05.528Z,15.78
2018-07-02T00:09:15.841Z,15.78
2018-07-02T00:10:26.994Z,15.75
2018-07-02T00:11:37.598Z,15.7
2018-07-02T00:12:48.611Z,15.71
2018-07-02T00:13:59.760Z,15.68
2018-07-02T00:15:09.977Z,15.67
2018-07-02T00:16:20.276Z,15.63
2018-07-02T00:17:30.525Z,15.63
2018-07-02T00:18:40.767Z,15.62
2018-07-02T00:19:50.994Z,15.63
2018-07-02T00:21:01.345Z,15.63
2018-07-02T00:22:12.420Z,15.62
2018-07-02T00:23:23.747Z,15.65
2018-07-02T00:24:34.734Z,15.55
2018-07-02T00:25:45.406Z,15.58
2018-07-02T00:26:55.997Z,15.49
2018-07-02T00:28:06.289Z,15.45
2018-07-02T00:29:16.271Z,15.47
2018-07-02T00:30:26.474Z,15.58
2018-07-02T00:31:36.688Z,15.47
2018-07-02T00:32:47.649Z,15.47
2018-07-02T00:33:58.458Z,15.44
2018-07-02T00:35:08.840Z,15.33
2018-07-02T00:36:19.072Z,15.34
2018-07-02T00:37:29.288Z,15.38
2018-07-02T00:38:39.180Z,15.31
2018-07-02T00:39:50.606Z,15.34
2018-07-02T00:41:00.593Z,15.33
2018-07-02T00:42:10.852Z,15.27
2018-07-02T00:43:21.266Z,15.38
2018-07-02T00:44:31.189Z,15.27
2018-07-02T00:45:41.363Z,15.25
2018-07-02T00:46:51.532Z,15.18
2018-07-02T00:48:01.770Z,15.26
2018-07-02T00:49:12.287Z,15.27
2018-07-02T00:50:23.126Z,15.23
2018-07-02T00:51:34.213Z,15.26
2018-07-02T00:52:44.139Z,15.22
2018-07-02T00:53:54.128Z,15.2
2018-07-02T00:55:04.364Z,15.18
2018-07-02T00:56:14.860Z,15.18
2018-07-02T00:57:25.404Z,15.18
2018-07-02T00:58:37.158Z,15.07
2018-07-02T00:59:47.424Z,15.1
2018-07-02T01:00:57.363Z,15.13
2018-07-02T01:02:07.569Z,15.12
2018-07-02T01:03:18.536Z,15.07
2018-07-02T01:04:28.446Z,15.08
2018-07-02T01:05:39.633Z,15.07
2018-07-02T01:06:49.872Z,15
2018-07-02T01:07:59.551Z,14.97
2018-07-02T01:09:09.471Z,14.97
2018-07-02T01:10:20.443Z,14.86
2018-07-02T01:11:31.787Z,14.89
2018-07-02T01:12:42.472Z,14.9
2018-07-02T01:13:52.411Z,14.89
2018-07-02T01:15:02.321Z,14.85
2018-07-02T01:16:13.440Z,14.85
2018-07-02T01:17:24.201Z,14.9
2018-07-02T01:18:35.929Z,14.79
2018-07-02T01:19:46.158Z,14.93
2018-07-02T01:20:56.088Z,14.79
2018-07-02T01:22:07.542Z,14.8
2018-07-02T01:23:18.533Z,14.77
2018-07-02T01:24:29.061Z,14.7
2018-07-02T01:25:39.352Z,14.64
2018-07-02T01:26:48.942Z,14.69
2018-07-02T01:27:59.786Z,14.67
2018-07-02T01:29:09.971Z,14.7
2018-07-02T01:30:20.725Z,14.69
2018-07-02T01:31:30.663Z,14.63
2018-07-02T01:32:41.831Z,14.74
2018-07-02T01:33:52.653Z,14.59
2018-07-02T01:35:02.877Z,14.66
2018-07-02T01:36:13.122Z,14.59
2018-07-02T01:37:23.044Z,14.52
2018-07-02T01:38:35.011Z,14.59
2018-07-02T01:39:45.497Z,14.6
2018-07-02T01:40:55.711Z,14.53
2018-07-02T01:42:07.553Z,14.57
2018-07-02T01:43:17.435Z,14.6
2018-07-02T01:44:27.441Z,14.6
2018-07-02T01:45:38.213Z,14.63
2018-07-02T01:46:48.776Z,14.48
2018-07-02T01:47:59.088Z,14.51
2018-07-02T01:49:09.295Z,14.51
2018-07-02T01:50:19.528Z,14.53
2018-07-02T01:51:30.434Z,14.46
2018-07-02T01:52:40.649Z,14.42
2018-07-02T01:53:51.471Z,14.41
2018-07-02T01:55:01.712Z,14.3
2018-07-02T01:56:11.340Z,14.3
2018-07-02T01:57:21.288Z,14.33
2018-07-02T01:58:32.023Z,14.3
2018-07-02T01:59:43.037Z,14.33
2018-07-02T02:00:54.300Z,14.26
2018-07-02T02:02:05.270Z,14.3
2018-07-02T02:03:15.455Z,14.31
2018-07-02T02:04:25.648Z,14.28
2018-07-02T02:05:35.540Z,14.3
2018-07-02T02:06:45.409Z,14.3
2018-07-02T02:07:55.591Z,14.21
2018-07-02T02:09:06.030Z,14.2
2018-07-02T02:10:16.989Z,14.19
2018-07-02T02:11:28.801Z,14.12
2018-07-02T02:12:40.372Z,14.16
2018-07-02T02:13:50.610Z,14.13
2018-07-02T02:15:00.785Z,14.11
2018-07-02T02:16:11.011Z,14.09
2018-07-02T02:17:21.173Z,14.09
2018-07-02T02:18:31.327Z,14.09
2018-07-02T02:19:42.232Z,14.05
2018-07-02T02:20:53.426Z,14.08
2018-07-02T02:22:05.389Z,14.03
2018-07-02T02:23:16.219Z,14.09
2018-07-02T02:24:26.925Z,13.97
2018-07-02T02:25:37.107Z,13.97
2018-07-02T02:26:46.968Z,13.95
2018-07-02T02:27:57.206Z,13.99
2018-07-02T02:29:07.393Z,13.99
2018-07-02T02:30:17.563Z,13.93
2018-07-02T02:31:28.736Z,13.99
2018-07-02T02:32:40.031Z,13.94
2018-07-02T02:33:51.464Z,14.02
2018-07-02T02:35:02.771Z,13.94
2018-07-02T02:36:12.653Z,13.99
2018-07-02T02:37:22.584Z,13.91
2018-07-02T02:38:32.602Z,13.93
2018-07-02T02:39:42.769Z,13.95
2018-07-02T02:40:52.987Z,13.97
2018-07-02T02:42:04.143Z,14.02
2018-07-02T02:43:14.573Z,13.97
2018-07-02T02:44:26.358Z,13.97
2018-07-02T02:45:38.122Z,13.91
2018-07-02T02:46:47.979Z,13.95
2018-07-02T02:47:58.235Z,13.9
2018-07-02T02:49:08.386Z,13.91
2018-07-02T02:50:18.578Z,13.97
2018-07-02T02:51:28.789Z,13.94
2018-07-02T02:52:39.789Z,13.97
2018-07-02T02:53:51.361Z,13.91
2018-07-02T02:55:02.897Z,13.87
2018-07-02T02:56:13.744Z,13.88
2018-07-02T02:57:23.886Z,13.87
2018-07-02T02:58:34.021Z,13.86
2018-07-02T02:59:44.206Z,13.84
2018-07-02T03:00:54.385Z,13.84
2018-07-02T03:02:04.562Z,13.88
2018-07-02T03:34:29.123Z,11.7
2018-07-02T03:35:40.872Z,11.79
2018-07-02T03:36:51.067Z,11.79
2018-07-02T03:38:01.211Z,11.81
2018-07-02T03:39:11.401Z,11.95
2018-07-02T03:40:21.561Z,12.07
2018-07-02T03:41:31.906Z,12.16
2018-07-02T03:42:43.028Z,12.34
2018-07-02T03:43:55.070Z,12.53
2018-07-02T03:45:05.909Z,12.7
2018-07-02T03:46:16.133Z,12.8
2018-07-02T03:47:26.281Z,13.06
2018-07-02T03:48:36.451Z,13.19
2018-07-02T03:49:46.608Z,13.36
2018-07-02T03:50:56.792Z,13.6
2018-07-02T03:52:08.119Z,13.65
2018-07-02T03:53:18.524Z,13.86
2018-07-02T03:54:29.254Z,13.97
2018-07-02T03:55:39.110Z,14.2
2018-07-02T03:56:49.264Z,14.38
2018-07-02T03:57:59.129Z,14.49
2018-07-02T03:59:09.342Z,14.56
2018-07-02T04:00:19.480Z,14.69
2018-07-02T04:01:30.760Z,14.63
2018-07-02T04:02:41.333Z,14.7
2018-07-02T04:03:52.804Z,14.82
2018-07-02T04:05:02.997Z,14.87
2018-07-02T04:06:12.918Z,14.95
2018-07-02T04:07:23.101Z,15.05
2018-07-02T04:08:33.278Z,15.13
2018-07-02T04:09:43.496Z,15.13
2018-07-02T04:10:54.562Z,15.2
2018-07-02T04:12:05.105Z,15.27
2018-07-02T04:13:16.452Z,15.26
2018-07-02T04:14:27.735Z,15.33
2018-07-02T04:15:37.618Z,15.41
2018-07-02T04:16:50.413Z,15.51
2018-07-02T04:18:02.073Z,15.53
2018-07-02T04:19:13.470Z,15.68
2018-07-02T04:20:26.493Z,15.8
2018-07-02T04:21:37.666Z,15.92
2018-07-02T04:22:49.546Z,17.45
2018-07-02T04:23:59.722Z,20.02
2018-07-02T04:25:11.040Z,21.93
2018-07-02T04:26:22.663Z,23.53
2018-07-02T04:27:32.868Z,24.9
2018-07-02T04:28:43.040Z,26.11
2018-07-02T04:29:53.807Z,26.9
2018-07-02T04:31:03.855Z,27.33
2018-07-02T04:32:15.123Z,26.72
2018-07-02T04:33:25.296Z,25.96
2018-07-02T04:34:35.464Z,25.86
2018-07-02T04:35:45.093Z,26.94
2018-07-02T04:36:55.303Z,28.18
2018-07-02T04:38:05.548Z,29.11
2018-07-02T04:39:16.150Z,28.68
2018-07-02T04:40:27.662Z,26.45
2018-07-02T04:41:39.996Z,27
2018-07-02T04:42:50.117Z,28.33
2018-07-02T04:44:02.854Z,29.33
2018-07-02T04:45:14.623Z,30.11
2018-07-02T04:46:26.536Z,30.71
2018-07-02T04:47:37.907Z,31.28
2018-07-02T04:48:50.739Z,31.44
2018-07-02T04:50:02.527Z,31.47
2018-07-02T04:51:14.850Z,31.82
2018-07-02T04:52:27.141Z,32.13
2018-07-02T04:53:39.366Z,32.23
2018-07-02T04:54:52.314Z,32.49
2018-07-02T04:56:04.636Z,32.56
2018-07-02T04:57:15.629Z,32.8
2018-07-02T04:58:26.321Z,32.76
2018-07-02T04:59:38.294Z,32.94
2018-07-02T05:00:48.576Z,33.01
2018-07-02T05:01:58.648Z,33.17
2018-07-02T05:03:08.345Z,33.17
2018-07-02T05:04:18.149Z,33.24
2018-07-02T05:05:27.961Z,33.32
2018-07-02T05:06:38.034Z,33.34
2018-07-02T05:07:48.260Z,33.28
2018-07-02T05:08:58.334Z,33.34
2018-07-02T05:10:08.411Z,33.37
2018-07-02T05:11:18.225Z,33.46
2018-07-02T05:12:28.036Z,33.55
2018-07-02T05:13:38.183Z,33.68
2018-07-02T05:14:48.267Z,33.73
2018-07-02T05:15:58.339Z,33.75
2018-07-02T05:17:08.642Z,33.73
2018-07-02T05:18:18.495Z,33.68
2018-07-02T05:19:28.608Z,33.61
2018-07-02T05:20:38.691Z,33.63
2018-07-02T05:21:48.508Z,33.59
2018-07-02T05:22:58.326Z,33.61
2018-07-02T05:24:08.149Z,33.48
2018-07-02T05:25:17.966Z,33.59
2018-07-02T05:26:28.041Z,33.48
2018-07-02T05:27:38.285Z,33.4
2018-07-02T05:28:48.363Z,33.39
2018-07-02T05:29:58.495Z,33.37
2018-07-02T05:31:08.575Z,33.41
2018-07-02T05:32:18.395Z,33.23
2018-07-02T05:33:28.392Z,33.2
2018-07-02T05:34:38.468Z,33.12
2018-07-02T05:35:48.331Z,33.08
2018-07-02T05:36:58.141Z,32.96
2018-07-02T05:38:08.216Z,32.8
2018-07-02T05:39:18.350Z,32.69
2018-07-02T05:40:27.927Z,32.62
2018-07-02T05:41:38.213Z,32.62
2018-07-02T05:42:48.294Z,32.64
2018-07-02T05:43:58.380Z,32.62
2018-07-02T05:45:08.457Z,32.67
2018-07-02T05:46:18.530Z,32.54
2018-07-02T05:47:28.401Z,32.49
2018-07-02T05:48:38.088Z,32.34
2018-07-02T05:49:48.308Z,32.27
2018-07-02T05:50:58.414Z,32.19
2018-07-02T05:52:08.502Z,32.1
2018-07-02T05:53:18.625Z,32.01
2018-07-02T05:54:28.706Z,31.9
2018-07-02T05:55:38.518Z,31.8
2018-07-02T05:56:48.590Z,31.67
2018-07-02T05:57:58.901Z,31.56
2018-07-02T05:59:09.035Z,31.62
2018-07-02T06:00:19.686Z,31.41
2018-07-02T06:01:30.209Z,31.36
2018-07-02T06:02:40.289Z,31.26
2018-07-02T06:03:50.106Z,31.15
2018-07-02T06:05:00.306Z,31.03
2018-07-02T06:06:10.392Z,30.93
2018-07-02T06:07:20.207Z,30.81
2018-07-02T06:08:30.304Z,30.75
2018-07-02T06:09:40.387Z,30.75
2018-07-02T06:10:50.568Z,30.63
2018-07-02T06:12:00.646Z,30.67
2018-07-02T06:13:11.070Z,30.56
2018-07-02T06:14:21.355Z,30.49
2018-07-02T06:15:30.924Z,30.29
2018-07-02T06:16:41.040Z,30.18
2018-07-02T06:17:51.177Z,30.04
2018-07-02T06:19:01.252Z,29.98
2018-07-02T06:20:11.368Z,29.94
2018-07-02T06:21:21.465Z,29.77
2018-07-02T06:22:31.278Z,29.61
2018-07-02T06:23:41.359Z,29.45
2018-07-02T06:24:51.548Z,29.29
2018-07-02T06:26:01.808Z,29.29
2018-07-02T06:27:11.365Z,29.2
2018-07-02T06:28:21.571Z,29.1
2018-07-02T06:29:31.646Z,28.98
2018-07-02T06:30:41.734Z,28.94
2018-07-02T06:31:51.528Z,28.72
2018-07-02T06:33:01.620Z,28.64
2018-07-02T06:34:11.754Z,28.43
2018-07-02T06:35:21.566Z,28.27
2018-07-02T06:36:31.646Z,28.16
2018-07-02T06:37:41.203Z,27.87
2018-07-02T06:38:51.031Z,27.69
2018-07-02T06:40:01.103Z,27.41
2018-07-02T06:41:11.177Z,27.23
2018-07-02T06:42:21.248Z,27.08
2018-07-02T06:43:31.323Z,26.94
2018-07-02T06:44:41.140Z,26.96
2018-07-02T06:45:51.269Z,26.81
2018-07-02T06:47:01.359Z,26.72
2018-07-02T06:48:11.440Z,26.67
2018-07-02T06:49:21.516Z,26.42
2018-07-02T06:50:31.324Z,26.45
2018-07-02T06:51:41.407Z,26.35
2018-07-02T06:52:51.476Z,26.31
2018-07-02T06:54:01.288Z,26.17
2018-07-02T06:55:11.100Z,25.97
2018-07-02T06:56:21.197Z,25.91
2018-07-02T06:57:31.270Z,25.82
2018-07-02T06:58:40.605Z,25.74
2018-07-02T06:59:50.793Z,25.66
2018-07-02T07:01:00.616Z,25.59
2018-07-02T07:02:10.705Z,25.48
2018-07-02T07:03:20.772Z,25.32
2018-07-02T07:04:30.855Z,25.17
2018-07-02T07:05:40.949Z,25.04
2018-07-02T07:06:50.762Z,24.86
2018-07-02T07:08:00.565Z,24.74
2018-07-02T07:09:10.370Z,24.77
2018-07-02T07:10:20.456Z,24.64
2018-07-02T07:11:30.547Z,24.46
2018-07-02T07:12:40.627Z,24.32
2018-07-02T07:13:50.198Z,24.39
2018-07-02T07:15:00.324Z,24.29
2018-07-02T07:16:10.397Z,24.37
2018-07-02T07:17:19.961Z,24.15
2018-07-02T07:18:29.785Z,24.12
2018-07-02T07:19:39.342Z,23.9
2018-07-02T07:20:49.425Z,23.82
2018-07-02T07:21:59.489Z,23.75
2018-07-02T07:23:09.580Z,23.62
2018-07-02T07:24:19.671Z,23.57
2018-07-02T07:25:29.759Z,23.56
2018-07-02T07:26:39.577Z,23.59
2018-07-02T07:27:49.673Z,23.6
2018-07-02T07:28:59.528Z,23.62
2018-07-02T07:30:09.596Z,23.59
2018-07-02T07:31:19.837Z,23.66
2018-07-02T07:32:29.916Z,23.74
2018-07-02T07:33:39.740Z,23.74
2018-07-02T07:34:49.593Z,23.75
2018-07-02T07:35:59.668Z,23.75
2018-07-02T07:37:09.748Z,23.77
2018-07-02T07:38:19.565Z,23.72
2018-07-02T07:39:29.628Z,23.74
2018-07-02T07:40:39.433Z,23.71
2018-07-02T07:41:49.567Z,23.67
2018-07-02T07:42:59.652Z,23.67
2018-07-02T07:44:09.744Z,23.75
2018-07-02T07:45:19.808Z,23.78
2018-07-02T07:46:29.919Z,23.89
2018-07-02T07:47:39.984Z,23.85
2018-07-02T07:48:50.068Z,23.93
2018-07-02T07:49:59.894Z,23.99
2018-07-02T07:51:09.964Z,23.94
2018-07-02T07:52:20.047Z,24.12
2018-07-02T07:53:30.104Z,24.12
2018-07-02T07:54:39.928Z,24.18
2018-07-02T07:55:50.080Z,24.33
2018-07-02T07:57:00.166Z,24.33
2018-07-02T07:58:10.001Z,24.32
2018-07-02T07:59:20.113Z,24.46
2018-07-02T08:00:30.335Z,24.48
2018-07-02T08:01:40.146Z,24.67
2018-07-02T08:02:50.239Z,24.75
2018-07-02T08:04:00.323Z,24.64
2018-07-02T08:05:10.420Z,24.75
2018-07-02T08:06:20.617Z,24.74
2018-07-02T08:07:30.708Z,24.82
2018-07-02T08:08:40.771Z,24.83
2018-07-02T08:09:50.587Z,24.86
2018-07-02T08:11:00.405Z,24.87
2018-07-02T08:12:10.486Z,24.9
2018-07-02T08:13:20.299Z,24.97
2018-07-02T08:14:30.364Z,24.93
2018-07-02T08:15:40.189Z,24.97
2018-07-02T08:16:50.010Z,24.92
2018-07-02T08:17:59.809Z,24.94
2018-07-02T08:19:10.023Z,25.05
2018-07-02T08:20:19.964Z,25.02
2018-07-02T08:21:29.781Z,25.12
2018-07-02T08:22:39.856Z,25.14
2018-07-02T08:23:50.025Z,25.15
2018-07-02T08:24:59.831Z,25.11
2018-07-02T08:26:09.921Z,25.11
2018-07-02T08:27:20.204Z,25.14
2018-07-02T08:28:30.443Z,25.15
2018-07-02T08:29:40.581Z,25.32
2018-07-02T08:30:50.667Z,25.33
2018-07-02T08:32:00.742Z,25.42
2018-07-02T08:33:10.968Z,25.47
2018-07-02T08:34:21.227Z,25.56
2018-07-02T08:35:31.371Z,25.6
2018-07-02T08:36:41.249Z,25.56
2018-07-02T08:37:51.106Z,25.67
2018-07-02T08:39:01.170Z,25.64
2018-07-02T08:40:11.248Z,25.63
2018-07-02T08:41:21.343Z,25.66
2018-07-02T08:42:30.968Z,25.62
2018-07-02T08:43:40.800Z,25.59
2018-07-02T08:44:50.880Z,25.74
2018-07-02T08:46:01.001Z,25.69
2018-07-02T08:47:11.106Z,25.81
2018-07-02T08:48:20.944Z,25.82
2018-07-02T08:49:31.020Z,25.85
2018-07-02T08:50:41.124Z,25.94
2018-07-02T08:51:51.212Z,25.93
2018-07-02T08:53:01.286Z,26
2018-07-02T08:54:11.113Z,26.11
2018-07-02T08:55:20.940Z,25.99
2018-07-02T08:56:31.019Z,26.11
2018-07-02T08:57:40.831Z,26.11
2018-07-02T08:58:50.913Z,26.2
2018-07-02T09:00:00.736Z,26.17
2018-07-02T09:01:10.808Z,26.16
2018-07-02T09:02:20.882Z,26.24
2018-07-02T09:03:30.970Z,26.23
2018-07-02T09:04:41.149Z,26.32
2018-07-02T09:05:51.246Z,26.32
2018-07-02T09:07:01.523Z,26.44
2018-07-02T09:08:11.361Z,26.45
2018-07-02T09:09:21.487Z,26.45
2018-07-02T09:10:31.594Z,26.47
2018-07-02T09:11:41.673Z,26.47
2018-07-02T09:12:51.490Z,26.57
2018-07-02T09:14:01.583Z,26.67
2018-07-02T09:15:11.685Z,26.63
2018-07-02T09:16:21.849Z,26.61
2018-07-02T09:17:31.944Z,26.56
2018-07-02T09:18:42.029Z,26.41
2018-07-02T09:19:52.099Z,26.49
2018-07-02T09:21:02.212Z,26.44
2018-07-02T09:22:12.103Z,26.44
2018-07-02T09:23:22.197Z,26.42
2018-07-02T09:24:32.079Z,26.53
2018-07-02T09:25:42.235Z,26.59
2018-07-02T09:26:52.107Z,26.59
2018-07-02T09:28:02.227Z,26.68
2018-07-02T09:29:12.342Z,26.76
2018-07-02T09:30:22.215Z,26.72
2018-07-02T09:31:32.327Z,26.68
2018-07-02T09:32:42.746Z,26.68
2018-07-02T09:33:52.887Z,26.68
2018-07-02T09:35:03.019Z,26.69
2018-07-02T09:36:13.155Z,26.71
2018-07-02T09:37:23.011Z,26.67
2018-07-02T09:38:33.150Z,26.61
2018-07-02T09:39:43.015Z,26.69
2018-07-02T09:40:52.861Z,26.57
2018-07-02T09:42:02.970Z,26.67
2018-07-02T09:43:13.178Z,26.78
2018-07-02T09:44:23.271Z,26.78
2018-07-02T09:45:33.352Z,26.82
2018-07-02T09:46:43.451Z,26.76
2018-07-02T09:47:53.544Z,26.74
2018-07-02T09:49:03.643Z,26.94
2018-07-02T09:50:13.482Z,26.97
2018-07-02T09:51:23.337Z,26.96
2018-07-02T09:52:33.425Z,27.05
2018-07-02T09:53:43.241Z,27.12
2018-07-02T09:54:53.327Z,27.13
2018-07-02T09:56:03.461Z,27.13
2018-07-02T09:57:13.313Z,27.18
2018-07-02T09:58:23.409Z,27.24
2018-07-02T09:59:32.955Z,27.28
2018-07-02T10:00:43.241Z,27.33
2018-07-02T10:01:53.213Z,27.33
2018-07-02T10:03:03.312Z,27.33
2018-07-02T10:04:13.397Z,27.28
2018-07-02T10:05:23.356Z,27.36
2018-07-02T10:06:33.734Z,27.42
2018-07-02T10:07:43.994Z,27.49
2018-07-02T10:08:54.111Z,27.45
2018-07-02T10:10:03.968Z,27.43
2018-07-02T10:11:14.527Z,27.41
2018-07-02T10:12:24.717Z,27.27
2018-07-02T10:13:35.143Z,27.31
2018-07-02T10:14:45.217Z,27.27
2018-07-02T10:15:55.326Z,27.21
2018-07-02T10:17:05.645Z,27.16
2018-07-02T10:18:15.774Z,27.28
2018-07-02T10:19:25.600Z,27.3
2018-07-02T10:20:35.702Z,27.42
2018-07-02T10:21:45.788Z,27.52
2018-07-02T10:22:55.905Z,27.64
2018-07-02T10:24:05.981Z,27.62
2018-07-02T10:25:16.108Z,27.76
2018-07-02T10:26:26.184Z,27.69
2018-07-02T10:27:36.027Z,27.89
2018-07-02T10:28:46.103Z,28.01
2018-07-02T10:29:56.193Z,28.02
2018-07-02T10:31:06.208Z,28.08
2018-07-02T10:32:16.287Z,28.11
2018-07-02T10:33:25.833Z,28.11
2018-07-02T10:34:35.646Z,28.16
2018-07-02T10:35:45.820Z,28.17
2018-07-02T10:36:55.914Z,28.31
2018-07-02T10:38:05.985Z,28.3
2018-07-02T10:39:16.057Z,28.28
2018-07-02T10:40:26.142Z,28.45
2018-07-02T10:41:36.245Z,28.53
2018-07-02T10:42:46.344Z,28.57
2018-07-02T10:43:56.184Z,28.63
2018-07-02T10:45:06.011Z,28.58
2018-07-02T10:46:16.111Z,28.57
2018-07-02T10:47:27.250Z,28.64
2018-07-02T10:48:37.348Z,28.7
2018-07-02T10:49:47.420Z,28.68
2018-07-02T10:50:57.228Z,28.72
2018-07-02T10:52:07.313Z,28.83
2018-07-02T10:53:17.173Z,28.86
2018-07-02T10:54:27.276Z,28.91
2018-07-02T10:55:37.546Z,28.85
2018-07-02T10:56:47.774Z,28.86
2018-07-02T10:57:57.616Z,28.82
2018-07-02T10:59:07.734Z,28.73
2018-07-02T11:00:17.823Z,28.83
2018-07-02T11:01:28.167Z,28.79
2018-07-02T11:02:38.420Z,28.75
2018-07-02T11:03:48.533Z,28.88
2018-07-02T11:04:58.397Z,28.82
2018-07-02T11:06:08.232Z,28.97
2018-07-02T11:07:18.348Z,29.05
2018-07-02T11:08:28.446Z,29.05
2018-07-02T11:09:38.535Z,29.1
2018-07-02T11:10:48.633Z,29.05
2018-07-02T11:11:58.443Z,29.05
2018-07-02T11:13:08.544Z,29.14
2018-07-02T11:14:18.615Z,29.17
2018-07-02T11:15:28.710Z,29.14
2018-07-02T11:16:38.862Z,29.21
2018-07-02T11:17:48.989Z,29.29
2018-07-02T11:18:59.077Z,29.23
2018-07-02T11:20:08.695Z,29.24
2018-07-02T11:21:18.791Z,29.26
2018-07-02T11:22:28.931Z,29.18
2018-07-02T11:23:38.817Z,29.06
2018-07-02T11:24:48.892Z,28.98
2018-07-02T11:25:58.749Z,28.95
2018-07-02T11:27:08.872Z,28.94
2018-07-02T11:28:18.688Z,28.95
2018-07-02T11:29:28.502Z,28.94
2018-07-02T11:30:38.615Z,29.06
2018-07-02T11:31:48.691Z,29.03
2018-07-02T11:32:58.779Z,28.92
2018-07-02T11:34:08.868Z,28.79
2018-07-02T11:35:18.952Z,28.86
2018-07-02T11:36:29.064Z,28.86
2018-07-02T11:37:39.209Z,29.02
2018-07-02T11:38:49.309Z,28.97
2018-07-02T11:39:59.144Z,29.05
2018-07-02T11:41:09.243Z,29.17
2018-07-02T11:42:19.332Z,29.23
2018-07-02T11:43:29.425Z,29.23
2018-07-02T11:44:39.508Z,29.35
2018-07-02T11:45:49.611Z,29.42
2018-07-02T11:46:59.702Z,29.43
2018-07-02T11:48:09.801Z,29.47
2018-07-02T11:49:19.881Z,29.51
2018-07-02T11:50:29.992Z,29.57
2018-07-02T11:51:39.817Z,29.54
2018-07-02T11:52:49.657Z,29.52
2018-07-02T11:53:59.735Z,29.54
2018-07-02T11:55:09.845Z,29.54
2018-07-02T11:56:19.675Z,29.52
2018-07-02T11:57:29.921Z,29.45
2018-07-02T11:58:40.122Z,29.42
2018-07-02T11:59:49.954Z,29.5
2018-07-02T12:01:00.074Z,29.54
2018-07-02T12:02:09.938Z,29.4
2018-07-02T12:03:19.819Z,29.39
2018-07-02T12:04:29.933Z,29.51
2018-07-02T12:05:40.032Z,29.45
2018-07-02T12:06:50.380Z,29.36
2018-07-02T12:08:00.486Z,29.48
2018-07-02T12:09:10.314Z,29.48
2018-07-02T12:10:20.669Z,29.42
2018-07-02T12:11:30.748Z,29.45
2018-07-02T12:12:40.873Z,29.36
2018-07-02T12:13:49.911Z,29.28
2018-07-02T12:15:00.058Z,29.11
2018-07-02T12:16:09.647Z,29.26
2018-07-02T12:17:19.210Z,29.11
2018-07-02T12:18:29.031Z,29.32
2018-07-02T12:19:39.113Z,29.38
2018-07-02T12:20:49.207Z,29.43
2018-07-02T12:21:59.290Z,29.39
2018-07-02T12:23:09.385Z,29.51
2018-07-02T12:24:19.472Z,29.51
2018-07-02T12:25:29.573Z,29.43
2018-07-02T12:26:39.710Z,29.45
2018-07-02T12:27:49.833Z,29.52
2018-07-02T12:28:59.909Z,29.51
2018-07-02T12:30:09.994Z,29.43
2018-07-02T12:31:19.818Z,29.5
2018-07-02T12:32:29.896Z,29.43
2018-07-02T12:33:40.092Z,29.47
2018-07-02T12:34:50.232Z,29.43
2018-07-02T12:36:00.340Z,29.57
2018-07-02T12:37:10.440Z,29.43
2018-07-02T12:38:20.295Z,29.52
2018-07-02T12:39:30.368Z,29.63
2018-07-02T12:40:40.475Z,29.63
2018-07-02T12:41:50.600Z,29.55
2018-07-02T12:43:00.707Z,29.54
2018-07-02T12:44:11.129Z,29.43
2018-07-02T12:45:21.224Z,29.52
2018-07-02T12:46:31.060Z,29.38
2018-07-02T12:47:41.172Z,29.39
2018-07-02T12:48:51.261Z,29.38
2018-07-02T12:50:01.378Z,29.38
2018-07-02T12:51:11.509Z,29.21
2018-07-02T12:52:21.592Z,29.32
2018-07-02T12:53:31.695Z,29.32
2018-07-02T12:54:41.785Z,29.35
2018-07-02T12:55:51.947Z,29.38
2018-07-02T12:57:02.037Z,29.4
2018-07-02T12:58:11.861Z,29.38
2018-07-02T12:59:21.696Z,29.28
2018-07-02T13:00:31.788Z,29.35
2018-07-02T13:01:41.891Z,29.33
2018-07-02T13:02:51.977Z,29.26
2018-07-02T13:04:02.078Z,29.33
2018-07-02T13:05:11.915Z,29.35
2018-07-02T13:06:22.020Z,29.3
2018-07-02T13:07:32.190Z,29.47
2018-07-02T13:08:42.014Z,29.48
2018-07-02T13:09:51.850Z,29.45
2018-07-02T13:11:01.697Z,29.45
2018-07-02T13:12:11.789Z,29.4
2018-07-02T13:13:21.864Z,29.42
2018-07-02T13:14:31.960Z,29.51
2018-07-02T13:15:42.067Z,29.58
2018-07-02T13:16:52.187Z,29.66
2018-07-02T13:18:02.276Z,29.76
2018-07-02T13:19:12.413Z,29.73
2018-07-02T13:20:22.461Z,29.79
2018-07-02T13:21:32.035Z,29.75
2018-07-02T13:22:41.873Z,29.79
2018-07-02T13:23:51.975Z,29.81
2018-07-02T13:25:02.074Z,29.73
2018-07-02T13:26:12.142Z,29.72
2018-07-02T13:27:22.246Z,29.75
2018-07-02T13:28:32.071Z,29.7
2018-07-02T13:29:41.893Z,29.66
2018-07-02T13:30:52.069Z,29.6
2018-07-02T13:32:01.902Z,29.65
2018-07-02T13:33:11.994Z,29.61
2018-07-02T13:34:21.825Z,29.66
2018-07-02T13:35:31.903Z,29.61
2018-07-02T13:36:42.039Z,29.79
2018-07-02T13:37:52.274Z,29.75
2018-07-02T13:39:02.392Z,29.79
2018-07-02T13:40:12.216Z,29.89
2018-07-02T13:41:22.045Z,29.87
2018-07-02T13:42:31.920Z,29.89
2018-07-02T13:43:41.800Z,29.95
2018-07-02T13:44:51.885Z,29.97
2018-07-02T13:46:01.975Z,29.89
2018-07-02T13:47:11.804Z,29.88
2018-07-02T13:48:21.914Z,29.76
2018-07-02T13:49:31.793Z,29.82
2018-07-02T13:50:42.122Z,29.75
2018-07-02T13:51:52.210Z,29.66
2018-07-02T13:53:02.291Z,29.69
2018-07-02T13:54:11.644Z,29.65
2018-07-02T13:55:21.906Z,29.79
2018-07-02T13:56:31.942Z,29.76
2018-07-02T13:57:42.031Z,29.75
2018-07-02T13:58:52.120Z,29.73
2018-07-02T14:00:01.697Z,29.7
2018-07-02T14:01:11.356Z,29.77
2018-07-02T14:02:21.485Z,29.82
2018-07-02T14:03:31.682Z,29.82
2018-07-02T14:04:41.842Z,29.77
2018-07-02T14:05:51.922Z,29.77
2018-07-02T14:07:01.535Z,29.81
2018-07-02T14:08:11.629Z,29.75
2018-07-02T14:09:21.734Z,29.76
2018-07-02T14:10:31.564Z,29.73
2018-07-02T14:11:41.683Z,29.72
2018-07-02T14:12:51.765Z,29.65
2018-07-02T14:14:01.875Z,29.65
2018-07-02T14:15:11.971Z,29.58
2018-07-02T14:16:22.047Z,29.52
2018-07-02T14:17:32.477Z,29.51
2018-07-02T14:18:42.561Z,29.48
2018-07-02T14:19:52.715Z,29.42
2018-07-02T14:21:02.933Z,29.51
2018-07-02T14:22:13.032Z,29.52
2018-07-02T14:23:23.135Z,29.58
2018-07-02T14:24:33.234Z,29.7
2018-07-02T14:25:43.074Z,29.69
2018-07-02T14:26:53.158Z,29.77
2018-07-02T14:28:03.244Z,29.76
2018-07-02T14:29:13.539Z,29.73
2018-07-02T14:30:23.388Z,29.77
2018-07-02T14:31:33.752Z,29.72
2018-07-02T14:32:43.829Z,29.7
2018-07-02T14:33:53.993Z,29.66
2018-07-02T14:35:04.125Z,29.61
2018-07-02T14:36:14.228Z,29.69
2018-07-02T14:37:24.072Z,29.58
2018-07-02T14:38:34.180Z,29.54
2018-07-02T14:39:44.286Z,29.5
2018-07-02T14:40:54.434Z,29.54
2018-07-02T14:42:04.274Z,29.48
2018-07-02T14:43:14.598Z,29.51
2018-07-02T14:44:24.691Z,29.63
2018-07-02T14:45:35.447Z,29.6
2018-07-02T14:46:45.896Z,29.75
2018-07-02T14:47:55.739Z,29.79
2018-07-02T14:49:05.305Z,29.76
2018-07-02T14:50:15.389Z,29.87
2018-07-02T14:51:25.479Z,29.92
2018-07-02T14:52:35.625Z,29.94
2018-07-02T14:53:46.177Z,29.79
2018-07-02T14:54:56.304Z,29.79
2018-07-02T14:56:06.144Z,29.75
2018-07-02T14:57:16.241Z,29.77
2018-07-02T14:58:26.360Z,29.81
2018-07-02T14:59:36.460Z,29.73
2018-07-02T15:00:46.578Z,29.84
2018-07-02T15:01:56.698Z,29.89
2018-07-02T15:03:06.786Z,29.98
2018-07-02T15:04:16.881Z,29.98
2018-07-02T15:05:26.991Z,29.94
2018-07-02T15:06:37.113Z,30.04
2018-07-02T15:07:47.222Z,30.03
2018-07-02T15:08:57.324Z,30.07
2018-07-02T15:10:07.168Z,30.11
2018-07-02T15:11:17.282Z,30.07
2018-07-02T15:12:27.134Z,30.19
2018-07-02T15:13:37.266Z,30.16
2018-07-02T15:14:47.207Z,30.19
2018-07-02T15:15:57.329Z,30.25
2018-07-02T15:17:07.436Z,30.26
2018-07-02T15:18:16.768Z,30.25
2018-07-02T15:19:27.250Z,30.16
2018-07-02T15:20:37.366Z,30.18
2018-07-02T15:21:47.544Z,30.09
2018-07-02T15:22:57.753Z,30.09
2018-07-02T15:24:07.742Z,30.13
2018-07-02T15:25:17.605Z,30.1
2018-07-02T15:26:27.756Z,30.1
2018-07-02T15:27:38.110Z,30.1
2018-07-02T15:28:48.198Z,30.09
2018-07-02T15:29:58.031Z,30.1
2018-07-02T15:31:07.924Z,30.04
2018-07-02T15:32:18.022Z,30.02
2018-07-02T15:33:28.115Z,30.1
2018-07-02T15:34:38.233Z,30.06
2018-07-02T15:35:48.619Z,30.03
2018-07-02T15:36:58.975Z,29.95
2018-07-02T15:38:08.848Z,29.79
2018-07-02T15:39:18.938Z,29.66